sensor_id;sensor_type;location;lat;lon;timestamp;pressure;altitude;pressure_sealevel;temperature;humidity
10718;BME280;13513;42.700;23.124;2023-08-08T00:00:54;92833.85;;;15.23;100.00
10718;BME280;13513;42.700;23.124;2023-08-08T00:03:22;92837.05;;;15.20;100.00
10718;BME280;13513;42.700;23.124;2023-08-08T00:05:49;92844.05;;;15.06;100.00
10718;BME280;13513;42.700;23.124;2023-08-08T00:08:17;92840.41;;;14.94;100.00
10718;BME280;13513;42.700;23.124;2023-08-08T00:10:44;92843.37;;;14.83;100.00
10718;BME280;13513;42.700;23.124;2023-08-08T00:13:12;92842.59;;;14.77;100.00
10718;BME280;13513;42.700;23.124;2023-08-08T00:15:39;92847.92;;;14.82;100.00
10718;BME280;13513;42.700;23.124;2023-08-08T00:18:07;92846.05;;;14.80;100.00
10718;BME280;13513;42.700;23.124;2023-08-08T00:20:34;92851.91;;;14.77;100.00
10718;BME280;13513;42.700;23.124;2023-08-08T00:23:01;92862.01;;;14.80;100.00
10718;BME280;13513;42.700;23.124;2023-08-08T00:25:29;92858.57;;;14.75;100.00
10718;BME280;13513;42.700;23.124;2023-08-08T00:27:56;92862.04;;;14.70;100.00
10718;BME280;13513;42.700;23.124;2023-08-08T00:30:24;92861.53;;;14.68;100.00
10718;BME280;13513;42.700;23.124;2023-08-08T00:32:51;92858.34;;;14.66;100.00
10718;BME280;13513;42.700;23.124;2023-08-08T00:35:19;92859.42;;;14.63;100.00
10718;BME280;13513;42.700;23.124;2023-08-08T00:37:46;92865.55;;;14.63;100.00
10718;BME280;13513;42.700;23.124;2023-08-08T00:40:14;92864.76;;;14.60;100.00
10718;BME280;13513;42.700;23.124;2023-08-08T00:42:41;92865.05;;;14.54;100.00
10718;BME280;13513;42.700;23.124;2023-08-08T00:45:09;92867.98;;;14.45;100.00
10718;BME280;13513;42.700;23.124;2023-08-08T00:47:36;92880.23;;;14.41;100.00
10718;BME280;13513;42.700;23.124;2023-08-08T00:50:04;92886.09;;;14.35;100.00
10718;BME280;13513;42.700;23.124;2023-08-08T00:52:32;92878.12;;;14.33;100.00
10718;BME280;13513;42.700;23.124;2023-08-08T00:55:01;92875.48;;;14.28;100.00
10718;BME280;13513;42.700;23.124;2023-08-08T00:57:28;92881.06;;;14.19;100.00
10718;BME280;13513;42.700;23.124;2023-08-08T00:59:56;92887.97;;;14.17;100.00
10718;BME280;13513;42.700;23.124;2023-08-08T01:02:23;92881.85;;;14.17;100.00
10718;BME280;13513;42.700;23.124;2023-08-08T01:04:50;92888.77;;;14.13;100.00
10718;BME280;13513;42.700;23.124;2023-08-08T01:12:40;92891.43;;;14.10;100.00
10718;BME280;13513;42.700;23.124;2023-08-08T01:15:06;92890.09;;;14.13;100.00
10718;BME280;13513;42.700;23.124;2023-08-08T01:17:36;92887.97;;;14.10;100.00
10718;BME280;13513;42.700;23.124;2023-08-08T01:20:07;92890.09;;;14.13;100.00
10718;BME280;13513;42.700;23.124;2023-08-08T01:23:24;92888.23;;;14.18;100.00
10718;BME280;13513;42.700;23.124;2023-08-08T01:25:08;92885.58;;;14.08;100.00
10718;BME280;13513;42.700;23.124;2023-08-08T01:27:36;92890.13;;;14.05;100.00
10718;BME280;13513;42.700;23.124;2023-08-08T01:30:04;92901.00;;;14.06;100.00
10718;BME280;13513;42.700;23.124;2023-08-08T01:32:33;92913.47;;;14.08;100.00
10718;BME280;13513;42.700;23.124;2023-08-08T01:35:00;92910.83;;;14.03;100.00
10718;BME280;13513;42.700;23.124;2023-08-08T01:37:31;92915.34;;;14.00;100.00
10718;BME280;13513;42.700;23.124;2023-08-08T01:40:00;92913.21;;;14.10;100.00
10718;BME280;13513;42.700;23.124;2023-08-08T01:42:29;92914.53;;;14.10;100.00
10718;BME280;13513;42.700;23.124;2023-08-08T01:44:57;92909.23;;;14.17;100.00
10718;BME280;13513;42.700;23.124;2023-08-08T01:47:24;92908.70;;;14.28;100.00
10718;BME280;13513;42.700;23.124;2023-08-08T01:49:52;92906.30;;;14.31;100.00
10718;BME280;13513;42.700;23.124;2023-08-08T01:52:19;92912.71;;;14.23;100.00
10718;BME280;13513;42.700;23.124;2023-08-08T01:54:48;92915.36;;;14.25;100.00
10718;BME280;13513;42.700;23.124;2023-08-08T01:57:16;92913.48;;;14.26;100.00
10718;BME280;13513;42.700;23.124;2023-08-08T01:59:45;92912.45;;;14.24;100.00
10718;BME280;13513;42.700;23.124;2023-08-08T02:02:13;92926.23;;;14.31;100.00
10718;BME280;13513;42.700;23.124;2023-08-08T02:04:41;92923.84;;;14.37;100.00
10718;BME280;13513;42.700;23.124;2023-08-08T02:07:08;92917.73;;;14.42;100.00
10718;BME280;13513;42.700;23.124;2023-08-08T02:09:36;92916.66;;;14.43;100.00
10718;BME280;13513;42.700;23.124;2023-08-08T02:12:04;92921.16;;;14.50;100.00
10718;BME280;13513;42.700;23.124;2023-08-08T02:14:31;92930.19;;;14.49;100.00
10718;BME280;13513;42.700;23.124;2023-08-08T02:16:58;92940.05;;;14.46;100.00
10718;BME280;13513;42.700;23.124;2023-08-08T02:19:26;92936.31;;;14.49;100.00
10718;BME280;13513;42.700;23.124;2023-08-08T02:21:54;92928.59;;;14.50;100.00
10718;BME280;13513;42.700;23.124;2023-08-08T02:24:21;92936.56;;;14.58;100.00
10718;BME280;13513;42.700;23.124;2023-08-08T02:26:49;92933.36;;;14.63;100.00
10718;BME280;13513;42.700;23.124;2023-08-08T02:29:16;92936.82;;;14.59;100.00
10718;BME280;13513;42.700;23.124;2023-08-08T02:31:43;92948.25;;;14.62;100.00
10718;BME280;13513;42.700;23.124;2023-08-08T02:34:11;92954.88;;;14.67;100.00
10718;BME280;13513;42.700;23.124;2023-08-08T02:36:38;92951.94;;;14.73;100.00
10718;BME280;13513;42.700;23.124;2023-08-08T02:39:06;92944.22;;;14.72;100.00
10718;BME280;13513;42.700;23.124;2023-08-08T02:41:33;92943.96;;;14.78;100.00
10718;BME280;13513;42.700;23.124;2023-08-08T02:44:01;92943.95;;;14.73;100.00
10718;BME280;13513;42.700;23.124;2023-08-08T02:46:28;92956.43;;;14.83;100.00
10718;BME280;13513;42.700;23.124;2023-08-08T02:48:56;92962.81;;;14.92;100.00
10718;BME280;13513;42.700;23.124;2023-08-08T02:51:23;92961.78;;;14.75;100.00
10718;BME280;13513;42.700;23.124;2023-08-08T02:53:51;92968.45;;;14.65;100.00
10718;BME280;13513;42.700;23.124;2023-08-08T02:56:18;92969.55;;;14.59;100.00
10718;BME280;13513;42.700;23.124;2023-08-08T02:58:45;92961.55;;;14.57;100.00
10718;BME280;13513;42.700;23.124;2023-08-08T03:01:13;92964.73;;;14.61;100.00
10718;BME280;13513;42.700;23.124;2023-08-08T03:03:41;92974.30;;;14.62;100.00
10718;BME280;13513;42.700;23.124;2023-08-08T03:06:09;92977.51;;;14.62;100.00
10718;BME280;13513;42.700;23.124;2023-08-08T03:08:36;92978.28;;;14.62;100.00
10718;BME280;13513;42.700;23.124;2023-08-08T03:11:04;92980.42;;;14.53;100.00
10718;BME280;13513;42.700;23.124;2023-08-08T03:13:31;92985.75;;;14.53;100.00
10718;BME280;13513;42.700;23.124;2023-08-08T03:15:59;92984.14;;;14.57;100.00
10718;BME280;13513;42.700;23.124;2023-08-08T03:18:26;92979.06;;;14.70;100.00
10718;BME280;13513;42.700;23.124;2023-08-08T03:20:54;92983.85;;;14.81;100.00
10718;BME280;13513;42.700;23.124;2023-08-08T03:23:21;92984.66;;;14.76;100.00
10718;BME280;13513;42.700;23.124;2023-08-08T03:25:49;92991.03;;;14.78;100.00
10718;BME280;13513;42.700;23.124;2023-08-08T03:28:17;92986.27;;;14.62;100.00
10718;BME280;13513;42.700;23.124;2023-08-08T03:30:44;92984.69;;;14.59;100.00
10718;BME280;13513;42.700;23.124;2023-08-08T03:33:12;92983.62;;;14.67;100.00
10718;BME280;13513;42.700;23.124;2023-08-08T03:35:39;92984.41;;;14.73;100.00
10718;BME280;13513;42.700;23.124;2023-08-08T03:38:07;92992.62;;;14.76;100.00
10718;BME280;13513;42.700;23.124;2023-08-08T03:40:34;92995.31;;;14.71;100.00
10718;BME280;13513;42.700;23.124;2023-08-08T03:43:02;92997.97;;;14.71;100.00
10718;BME280;13513;42.700;23.124;2023-08-08T03:45:30;93004.09;;;14.54;100.00
10718;BME280;13513;42.700;23.124;2023-08-08T03:47:57;93000.36;;;14.65;100.00
10718;BME280;13513;42.700;23.124;2023-08-08T03:50:25;92996.63;;;14.74;100.00
10718;BME280;13513;42.700;23.124;2023-08-08T03:52:52;92999.30;;;14.74;100.00
10718;BME280;13513;42.700;23.124;2023-08-08T03:55:20;93007.00;;;14.68;100.00
10718;BME280;13513;42.700;23.124;2023-08-08T03:57:47;93002.73;;;14.72;100.00
10718;BME280;13513;42.700;23.124;2023-08-08T04:00:15;93011.00;;;14.65;100.00
10718;BME280;13513;42.700;23.124;2023-08-08T04:02:43;93015.26;;;14.71;100.00
10718;BME280;13513;42.700;23.124;2023-08-08T04:05:10;93022.15;;;14.77;100.00
10718;BME280;13513;42.700;23.124;2023-08-08T04:07:38;93022.70;;;14.77;100.00
10718;BME280;13513;42.700;23.124;2023-08-08T04:10:06;93020.56;;;14.76;100.00
10718;BME280;13513;42.700;23.124;2023-08-08T04:12:34;93018.19;;;14.70;100.00
10718;BME280;13513;42.700;23.124;2023-08-08T04:15:01;93023.76;;;14.71;100.00
10718;BME280;13513;42.700;23.124;2023-08-08T04:17:29;93020.83;;;14.75;100.00
10718;BME280;13513;42.700;23.124;2023-08-08T04:19:56;93022.16;;;14.75;100.00
10718;BME280;13513;42.700;23.124;2023-08-08T04:22:24;93026.42;;;14.71;100.00
10718;BME280;13513;42.700;23.124;2023-08-08T04:24:51;93027.22;;;14.74;100.00
10718;BME280;13513;42.700;23.124;2023-08-08T04:27:19;93037.33;;;14.77;100.00
10718;BME280;13513;42.700;23.124;2023-08-08T04:29:46;93030.42;;;14.68;100.00
10718;BME280;13513;42.700;23.124;2023-08-08T04:32:14;93027.20;;;14.79;100.00
10718;BME280;13513;42.700;23.124;2023-08-08T04:34:41;93003.77;;;14.88;100.00
10718;BME280;13513;42.700;23.124;2023-08-08T04:37:09;92993.95;;;14.86;100.00
10718;BME280;13513;42.700;23.124;2023-08-08T04:39:36;93000.06;;;14.84;100.00
10718;BME280;13513;42.700;23.124;2023-08-08T04:42:04;93017.38;;;14.79;100.00
10718;BME280;13513;42.700;23.124;2023-08-08T04:44:31;93015.75;;;14.88;100.00
10718;BME280;13513;42.700;23.124;2023-08-08T04:46:59;93031.93;;;15.12;100.00
10718;BME280;13513;42.700;23.124;2023-08-08T04:49:26;93036.05;;;15.53;100.00
10718;BME280;13513;42.700;23.124;2023-08-08T04:51:55;93042.86;;;15.79;100.00
10718;BME280;13513;42.700;23.124;2023-08-08T04:54:22;93055.58;;;15.94;100.00
10718;BME280;13513;42.700;23.124;2023-08-08T04:56:50;93069.02;;;16.18;100.00
10718;BME280;13513;42.700;23.124;2023-08-08T04:59:17;93071.65;;;16.64;100.00
10718;BME280;13513;42.700;23.124;2023-08-08T05:01:44;93073.31;;;16.89;100.00
10718;BME280;13513;42.700;23.124;2023-08-08T05:04:12;93072.95;;;17.00;100.00
10718;BME280;13513;42.700;23.124;2023-08-08T05:06:39;93070.78;;;17.02;100.00
10718;BME280;13513;42.700;23.124;2023-08-08T05:09:07;93078.44;;;17.11;100.00
10718;BME280;13513;42.700;23.124;2023-08-08T05:11:36;93075.65;;;17.24;100.00
10718;BME280;13513;42.700;23.124;2023-08-08T05:14:03;93063.72;;;17.42;100.00
10718;BME280;13513;42.700;23.124;2023-08-08T05:16:31;93064.21;;;17.47;100.00
10718;BME280;13513;42.700;23.124;2023-08-08T05:18:58;93064.14;;;17.54;100.00
10718;BME280;13513;42.700;23.124;2023-08-08T05:21:26;93076.98;;;17.52;100.00
10718;BME280;13513;42.700;23.124;2023-08-08T05:23:53;93090.34;;;17.52;100.00
10718;BME280;13513;42.700;23.124;2023-08-08T05:26:21;93104.41;;;17.60;100.00
10718;BME280;13513;42.700;23.124;2023-08-08T05:28:48;93106.63;;;17.77;100.00
10718;BME280;13513;42.700;23.124;2023-08-08T05:31:16;93119.47;;;17.77;100.00
10718;BME280;13513;42.700;23.124;2023-08-08T05:33:43;93128.34;;;17.94;100.00
10718;BME280;13513;42.700;23.124;2023-08-08T05:36:11;93123.37;;;18.08;100.00
10718;BME280;13513;42.700;23.124;2023-08-08T05:38:38;93119.15;;;18.02;100.00
10718;BME280;13513;42.700;23.124;2023-08-08T05:41:07;93121.67;;;18.15;100.00
10718;BME280;13513;42.700;23.124;2023-08-08T05:43:35;93122.77;;;18.11;100.00
10718;BME280;13513;42.700;23.124;2023-08-08T05:46:03;93127.91;;;17.84;100.00
10718;BME280;13513;42.700;23.124;2023-08-08T05:48:30;93128.89;;;17.70;100.00
10718;BME280;13513;42.700;23.124;2023-08-08T05:50:57;93130.11;;;17.56;100.00
10718;BME280;13513;42.700;23.124;2023-08-08T05:53:26;93137.73;;;17.39;100.00
10718;BME280;13513;42.700;23.124;2023-08-08T05:55:53;93138.83;;;17.36;100.00
10718;BME280;13513;42.700;23.124;2023-08-08T05:58:20;93137.60;;;17.26;100.00
10718;BME280;13513;42.700;23.124;2023-08-08T06:00:48;93143.42;;;17.30;100.00
10718;BME280;13513;42.700;23.124;2023-08-08T06:03:15;93147.64;;;17.36;100.00
10718;BME280;13513;42.700;23.124;2023-08-08T06:05:43;93155.64;;;17.41;100.00
10718;BME280;13513;42.700;23.124;2023-08-08T06:08:10;93148.95;;;17.39;100.00
10718;BME280;13513;42.700;23.124;2023-08-08T06:10:39;93150.12;;;17.59;100.00
10718;BME280;13513;42.700;23.124;2023-08-08T06:13:07;93144.95;;;17.67;100.00
10718;BME280;13513;42.700;23.124;2023-08-08T06:15:34;93146.88;;;17.62;100.00
10718;BME280;13513;42.700;23.124;2023-08-08T06:18:02;93136.51;;;17.58;98.84
10718;BME280;13513;42.700;23.124;2023-08-08T06:20:29;93140.02;;;17.53;100.00
10718;BME280;13513;42.700;23.124;2023-08-08T06:22:56;93147.22;;;17.79;100.00
10718;BME280;13513;42.700;23.124;2023-08-08T06:25:24;93146.56;;;18.36;99.19
10718;BME280;13513;42.700;23.124;2023-08-08T06:27:51;93151.09;;;18.75;96.18
10718;BME280;13513;42.700;23.124;2023-08-08T06:30:19;93160.78;;;19.08;93.34
10718;BME280;13513;42.700;23.124;2023-08-08T06:32:46;93170.34;;;18.96;86.58
10718;BME280;13513;42.700;23.124;2023-08-08T06:35:14;93164.31;;;18.88;85.87
10718;BME280;13513;42.700;23.124;2023-08-08T06:37:43;93166.27;;;18.82;84.63
10718;BME280;13513;42.700;23.124;2023-08-08T06:40:11;93161.39;;;18.84;88.53
10718;BME280;13513;42.700;23.124;2023-08-08T06:42:39;93163.87;;;18.81;88.18
10718;BME280;13513;42.700;23.124;2023-08-08T06:45:07;93166.88;;;18.58;86.46
10718;BME280;13513;42.700;23.124;2023-08-08T06:47:36;93161.45;;;18.45;88.39
10718;BME280;13513;42.700;23.124;2023-08-08T06:50:03;93156.78;;;18.29;87.49
10718;BME280;13513;42.700;23.124;2023-08-08T06:52:31;93161.33;;;18.29;85.03
10718;BME280;13513;42.700;23.124;2023-08-08T06:54:59;93171.14;;;18.78;85.67
10718;BME280;13513;42.700;23.124;2023-08-08T06:57:26;93163.28;;;19.53;81.34
10718;BME280;13513;42.700;23.124;2023-08-08T06:59:53;93168.96;;;19.65;80.38
10718;BME280;13513;42.700;23.124;2023-08-08T07:02:21;93180.33;;;19.43;76.94
10718;BME280;13513;42.700;23.124;2023-08-08T07:04:48;93181.50;;;19.19;77.18
10718;BME280;13513;42.700;23.124;2023-08-08T07:07:16;93186.57;;;19.02;77.66
10718;BME280;13513;42.700;23.124;2023-08-08T07:09:44;93180.34;;;18.72;76.49
10718;BME280;13513;42.700;23.124;2023-08-08T07:12:11;93167.36;;;18.81;72.54
10718;BME280;13513;42.700;23.124;2023-08-08T07:14:39;93177.20;;;19.02;74.66
10718;BME280;13513;42.700;23.124;2023-08-08T07:17:06;93171.16;;;18.94;76.17
10718;BME280;13513;42.700;23.124;2023-08-08T07:19:34;93172.38;;;18.85;80.26
10718;BME280;13513;42.700;23.124;2023-08-08T07:22:02;93168.18;;;18.61;77.19
10718;BME280;13513;42.700;23.124;2023-08-08T07:24:30;93167.53;;;18.69;76.91
10718;BME280;13513;42.700;23.124;2023-08-08T07:26:58;93174.84;;;19.16;80.44
10718;BME280;13513;42.700;23.124;2023-08-08T07:29:26;93173.10;;;19.57;71.54
10718;BME280;13513;42.700;23.124;2023-08-08T07:31:53;93162.38;;;20.79;72.95
10718;BME280;13513;42.700;23.124;2023-08-08T07:34:21;93162.82;;;21.85;64.43
10718;BME280;13513;42.700;23.124;2023-08-08T07:36:49;93159.48;;;22.49;56.04
10718;BME280;13513;42.700;23.124;2023-08-08T07:39:16;93169.92;;;22.96;53.05
10718;BME280;13513;42.700;23.124;2023-08-08T07:41:44;93169.17;;;23.38;51.65
10718;BME280;13513;42.700;23.124;2023-08-08T07:44:11;93162.91;;;24.20;51.94
10718;BME280;13513;42.700;23.124;2023-08-08T07:46:38;93163.92;;;25.03;47.83
10718;BME280;13513;42.700;23.124;2023-08-08T07:49:06;93159.30;;;25.91;44.02
10718;BME280;13513;42.700;23.124;2023-08-08T07:51:36;93168.16;;;26.75;42.88
10718;BME280;13513;42.700;23.124;2023-08-08T07:54:03;93168.83;;;26.90;42.21
10718;BME280;13513;42.700;23.124;2023-08-08T07:56:32;93167.88;;;26.32;42.91
10718;BME280;13513;42.700;23.124;2023-08-08T07:58:59;93173.20;;;25.63;43.35
10718;BME280;13513;42.700;23.124;2023-08-08T08:01:28;93165.27;;;25.03;44.48
10718;BME280;13513;42.700;23.124;2023-08-08T08:03:56;93175.95;;;24.18;45.70
10718;BME280;13513;42.700;23.124;2023-08-08T08:06:23;93178.48;;;23.92;45.61
10718;BME280;13513;42.700;23.124;2023-08-08T08:08:51;93173.31;;;23.44;46.33
10718;BME280;13513;42.700;23.124;2023-08-08T08:11:18;93169.83;;;23.27;47.71
10718;BME280;13513;42.700;23.124;2023-08-08T08:13:46;93165.05;;;23.41;49.66
10718;BME280;13513;42.700;23.124;2023-08-08T08:16:14;93154.97;;;24.38;45.51
10718;BME280;13513;42.700;23.124;2023-08-08T08:18:41;93159.48;;;24.78;45.03
10718;BME280;13513;42.700;23.124;2023-08-08T08:21:09;93155.98;;;25.12;43.72
10718;BME280;13513;42.700;23.124;2023-08-08T08:23:36;93162.63;;;24.51;43.54
10718;BME280;13513;42.700;23.124;2023-08-08T08:26:04;93168.14;;;25.27;42.97
10718;BME280;13513;42.700;23.124;2023-08-08T08:28:31;93169.22;;;25.93;41.70
10718;BME280;13513;42.700;23.124;2023-08-08T08:31:06;93167.70;;;26.67;41.51
10718;BME280;13513;42.700;23.124;2023-08-08T08:33:35;93174.77;;;26.47;40.39
10718;BME280;13513;42.700;23.124;2023-08-08T08:36:02;93169.90;;;26.29;42.05
10718;BME280;13513;42.700;23.124;2023-08-08T08:38:30;93165.44;;;26.93;38.21
10718;BME280;13513;42.700;23.124;2023-08-08T08:40:57;93177.80;;;26.34;39.04
10718;BME280;13513;42.700;23.124;2023-08-08T08:43:25;93157.81;;;27.17;39.59
10718;BME280;13513;42.700;23.124;2023-08-08T08:45:53;93171.44;;;28.11;36.25
10718;BME280;13513;42.700;23.124;2023-08-08T08:48:22;93168.98;;;29.30;36.58
10718;BME280;13513;42.700;23.124;2023-08-08T08:50:49;93172.20;;;30.18;33.90
10718;BME280;13513;42.700;23.124;2023-08-08T08:53:17;93171.61;;;30.60;33.71
10718;BME280;13513;42.700;23.124;2023-08-08T08:55:45;93167.08;;;30.68;33.13
10718;BME280;13513;42.700;23.124;2023-08-08T08:58:15;93172.63;;;30.11;34.61
10718;BME280;13513;42.700;23.124;2023-08-08T09:00:46;93165.92;;;28.91;34.45
10718;BME280;13513;42.700;23.124;2023-08-08T09:03:15;93175.04;;;27.54;36.16
10718;BME280;13513;42.700;23.124;2023-08-08T09:05:43;93168.73;;;27.78;39.24
10718;BME280;13513;42.700;23.124;2023-08-08T09:08:11;93164.13;;;29.30;35.26
10718;BME280;13513;42.700;23.124;2023-08-08T09:10:39;93158.03;;;31.48;32.08
10718;BME280;13513;42.700;23.124;2023-08-08T09:13:07;93167.27;;;32.45;29.21
10718;BME280;13513;42.700;23.124;2023-08-08T09:15:34;93169.00;;;33.92;26.85
10718;BME280;13513;42.700;23.124;2023-08-08T09:18:02;93166.38;;;33.79;28.02
10718;BME280;13513;42.700;23.124;2023-08-08T09:20:30;93174.18;;;33.15;28.62
10718;BME280;13513;42.700;23.124;2023-08-08T09:22:57;93160.41;;;34.52;27.40
10718;BME280;13513;42.700;23.124;2023-08-08T09:25:26;93162.47;;;35.14;27.13
10718;BME280;13513;42.700;23.124;2023-08-08T09:27:53;93162.20;;;34.06;28.68
10718;BME280;13513;42.700;23.124;2023-08-08T09:30:21;93160.49;;;34.87;26.86
10718;BME280;13513;42.700;23.124;2023-08-08T09:32:49;93162.36;;;33.93;26.92
10718;BME280;13513;42.700;23.124;2023-08-08T09:35:16;93161.86;;;33.19;27.87
10718;BME280;13513;42.700;23.124;2023-08-08T09:37:45;93162.94;;;31.00;30.07
10718;BME280;13513;42.700;23.124;2023-08-08T09:40:12;93157.80;;;29.60;35.28
10718;BME280;13513;42.700;23.124;2023-08-08T09:42:40;93159.91;;;28.30;34.15
10718;BME280;13513;42.700;23.124;2023-08-08T09:45:09;93153.98;;;27.24;36.96
10718;BME280;13513;42.700;23.124;2023-08-08T09:47:37;93157.16;;;26.41;39.23
10718;BME280;13513;42.700;23.124;2023-08-08T09:50:06;93159.20;;;26.44;40.71
10718;BME280;13513;42.700;23.124;2023-08-08T09:52:34;93154.40;;;26.11;40.04
10718;BME280;13513;42.700;23.124;2023-08-08T09:55:02;93160.70;;;25.44;40.00
10718;BME280;13513;42.700;23.124;2023-08-08T09:57:30;93146.12;;;25.02;43.42
10718;BME280;13513;42.700;23.124;2023-08-08T09:59:58;93151.05;;;24.79;43.95
10718;BME280;13513;42.700;23.124;2023-08-08T10:02:28;93143.99;;;24.87;42.45
10718;BME280;13513;42.700;23.124;2023-08-08T10:04:57;93146.39;;;24.74;44.53
10718;BME280;13513;42.700;23.124;2023-08-08T10:07:25;93144.52;;;24.80;45.25
10718;BME280;13513;42.700;23.124;2023-08-08T10:09:52;93147.42;;;24.96;41.99
10718;BME280;13513;42.700;23.124;2023-08-08T10:12:20;93157.03;;;24.56;43.31
10718;BME280;13513;42.700;23.124;2023-08-08T10:14:50;93152.67;;;24.72;44.59
10718;BME280;13513;42.700;23.124;2023-08-08T10:17:18;93151.39;;;24.63;44.72
10718;BME280;13513;42.700;23.124;2023-08-08T10:19:55;93137.08;;;24.63;45.22
10718;BME280;13513;42.700;23.124;2023-08-08T10:22:24;93152.88;;;24.44;44.56
10718;BME280;13513;42.700;23.124;2023-08-08T10:24:53;93150.27;;;24.56;45.71
10718;BME280;13513;42.700;23.124;2023-08-08T10:27:34;93153.94;;;24.89;43.94
10718;BME280;13513;42.700;23.124;2023-08-08T10:30:04;93160.29;;;25.13;42.83
10718;BME280;13513;42.700;23.124;2023-08-08T10:32:44;93158.94;;;25.13;41.74
10718;BME280;13513;42.700;23.124;2023-08-08T10:35:13;93153.92;;;25.09;43.56
10718;BME280;13513;42.700;23.124;2023-08-08T10:37:40;93157.92;;;25.18;43.21
10718;BME280;13513;42.700;23.124;2023-08-08T10:40:09;93145.66;;;25.35;44.58
10718;BME280;13513;42.700;23.124;2023-08-08T10:42:44;93147.11;;;25.59;41.05
10718;BME280;13513;42.700;23.124;2023-08-08T10:45:15;93143.82;;;25.53;43.33
10718;BME280;13513;42.700;23.124;2023-08-08T10:47:44;93149.52;;;25.46;41.66
10718;BME280;13513;42.700;23.124;2023-08-08T10:50:15;93141.68;;;25.32;41.38
10718;BME280;13513;42.700;23.124;2023-08-08T10:52:52;93141.73;;;25.24;41.76
10718;BME280;13513;42.700;23.124;2023-08-08T10:55:24;93134.34;;;25.12;42.06
10718;BME280;13513;42.700;23.124;2023-08-08T10:58:13;93131.04;;;25.07;42.38
10718;BME280;13513;42.700;23.124;2023-08-08T11:00:42;93138.36;;;24.86;45.56
10718;BME280;13513;42.700;23.124;2023-08-08T11:03:09;93140.23;;;25.20;42.70
10718;BME280;13513;42.700;23.124;2023-08-08T11:05:38;93136.20;;;25.41;41.14
10718;BME280;13513;42.700;23.124;2023-08-08T11:08:06;93140.14;;;25.23;42.34
10718;BME280;13513;42.700;23.124;2023-08-08T11:10:39;93140.66;;;25.10;41.08
10718;BME280;13513;42.700;23.124;2023-08-08T11:13:08;93137.20;;;25.01;39.05
10718;BME280;13513;42.700;23.124;2023-08-08T11:15:36;93135.35;;;24.93;41.07
10718;BME280;13513;42.700;23.124;2023-08-08T11:18:04;93135.42;;;24.70;42.16
10718;BME280;13513;42.700;23.124;2023-08-08T11:20:33;93142.28;;;24.68;43.23
10718;BME280;13513;42.700;23.124;2023-08-08T11:23:01;93138.46;;;24.83;41.52
10718;BME280;13513;42.700;23.124;2023-08-08T11:25:31;93138.51;;;24.75;42.75
10718;BME280;13513;42.700;23.124;2023-08-08T11:27:59;93142.04;;;24.81;41.95
10718;BME280;13513;42.700;23.124;2023-08-08T11:30:32;93142.16;;;24.64;39.69
10718;BME280;13513;42.700;23.124;2023-08-08T11:33:00;93143.81;;;24.48;41.90
10718;BME280;13513;42.700;23.124;2023-08-08T11:35:27;93140.44;;;24.37;43.52
10718;BME280;13513;42.700;23.124;2023-08-08T11:37:57;93137.28;;;24.49;42.51
10718;BME280;13513;42.700;23.124;2023-08-08T11:40:27;93145.58;;;24.59;42.63
10718;BME280;13513;42.700;23.124;2023-08-08T11:42:55;93139.82;;;24.46;42.91
10718;BME280;13513;42.700;23.124;2023-08-08T11:45:24;93136.77;;;24.41;42.65
10718;BME280;13513;42.700;23.124;2023-08-08T11:47:53;93131.59;;;24.42;44.61
10718;BME280;13513;42.700;23.124;2023-08-08T11:50:22;93131.36;;;24.56;41.16
10718;BME280;13513;42.700;23.124;2023-08-08T11:52:52;93127.34;;;24.33;41.81
10718;BME280;13513;42.700;23.124;2023-08-08T11:55:21;93131.03;;;24.05;43.78
10718;BME280;13513;42.700;23.124;2023-08-08T11:57:48;93132.54;;;24.09;44.99
10718;BME280;13513;42.700;23.124;2023-08-08T12:00:16;93123.38;;;24.45;43.47
10718;BME280;13513;42.700;23.124;2023-08-08T12:02:44;93114.80;;;24.86;44.84
10718;BME280;13513;42.700;23.124;2023-08-08T12:05:13;93116.00;;;24.97;40.37
10718;BME280;13513;42.700;23.124;2023-08-08T12:07:47;93115.27;;;24.59;41.13
10718;BME280;13513;42.700;23.124;2023-08-08T12:10:17;93119.56;;;24.31;41.74
10718;BME280;13513;42.700;23.124;2023-08-08T12:12:46;93119.16;;;23.98;42.92
10718;BME280;13513;42.700;23.124;2023-08-08T12:15:14;93113.94;;;23.93;43.46
10718;BME280;13513;42.700;23.124;2023-08-08T12:17:43;93115.03;;;23.92;41.76
10718;BME280;13513;42.700;23.124;2023-08-08T12:20:10;93097.92;;;24.25;43.94
10718;BME280;13513;42.700;23.124;2023-08-08T12:22:38;93101.19;;;24.68;42.86
10718;BME280;13513;42.700;23.124;2023-08-08T12:25:05;93095.22;;;24.89;41.85
10718;BME280;13513;42.700;23.124;2023-08-08T12:27:34;93100.20;;;24.29;41.15
10718;BME280;13513;42.700;23.124;2023-08-08T12:30:02;93091.30;;;24.14;42.56
10718;BME280;13513;42.700;23.124;2023-08-08T12:32:29;93088.98;;;24.33;41.07
10718;BME280;13513;42.700;23.124;2023-08-08T12:34:58;93092.53;;;24.46;39.75
10718;BME280;13513;42.700;23.124;2023-08-08T12:37:26;93089.35;;;24.67;43.02
10718;BME280;13513;42.700;23.124;2023-08-08T12:39:53;93078.94;;;24.98;43.45
10718;BME280;13513;42.700;23.124;2023-08-08T12:42:21;93078.56;;;25.14;41.85
10718;BME280;13513;42.700;23.124;2023-08-08T12:44:48;93083.20;;;25.19;41.03
10718;BME280;13513;42.700;23.124;2023-08-08T12:47:18;93085.30;;;25.28;42.01
10718;BME280;13513;42.700;23.124;2023-08-08T12:49:47;93084.23;;;25.47;41.28
10718;BME280;13513;42.700;23.124;2023-08-08T12:52:14;93084.38;;;25.51;41.44
10718;BME280;13513;42.700;23.124;2023-08-08T12:54:42;93084.63;;;25.64;40.35